Freetown, Kentucky
Current Conditions -  °F | °C
As of 10:35 PM on Monday 20 Oct 2014 (Local Time) from KGLW Reporting Station
Scattered Clouds Scattered Clouds  
Wind Chill: 55°   Ceiling: Unl
Heat Index: 55°   Visibility: 10mi
Dew Point: 49°   Wind: 3mph
Humidity: 81%   Direction: 250°WSW
Pressure: 29.98"   Gusts: NA
Location:  36.6549°N, 85.8315°W
Report Text: KGLW 210335Z AUTO 25003KT 10SM SCT041 SCT090 13/10 A2998 RMK AO2 T01260095
Loading
Personal Weather Stations






























Interactive Weather Map
Tropical Storm Tracking
New forecast layout! Learn more

10-Day Weather Forecast

Advertisements
Track Severe Weather on mobile